Detroit, Michigan
Current Conditions -  °F | °C
As of 1:00 AM on Thursday 29 Jan 2015 (Local Time) from CYQG Reporting Station
Overcast Overcast  
Wind Chill: 13°   Ceiling: 10000
Heat Index: 25°   Visibility: 15mi
Dew Point: 16°   Wind: 14mph
Humidity: 69%   Direction: 160°SSE
Pressure: 30.1"   Gusts: NA
Location:  42.33°N, 83.05°W
Report Text: CYQG 290600Z 16012KT 15SM OVC100 M04/M09 A3010 RMK AC8 SLP203
Loading
Personal Weather Stations






























Interactive Weather Map New forecast layout! Learn more

10-Day Weather Forecast

Advertisements
Track Severe Weather on mobile